sensor_id;sensor_type;location;lat;lon;timestamp;P1;durP1;ratioP1;P2;durP2;ratioP2
69253;SDS011;56364;41.816;12.448;2023-11-21T00:04:35;5.43;;;2.95;;
69253;SDS011;56364;41.816;12.448;2023-11-21T00:07:04;7.88;;;2.63;;
69253;SDS011;56364;41.816;12.448;2023-11-21T00:09:31;8.60;;;3.05;;
69253;SDS011;56364;41.816;12.448;2023-11-21T00:11:57;8.10;;;2.70;;
69253;SDS011;56364;41.816;12.448;2023-11-21T00:14:30;5.28;;;2.10;;
69253;SDS011;56364;41.816;12.448;2023-11-21T00:19:43;5.88;;;1.90;;
69253;SDS011;56364;41.816;12.448;2023-11-21T00:30:43;5.03;;;1.50;;
69253;SDS011;56364;41.816;12.448;2023-11-21T00:33:09;4.60;;;1.42;;
69253;SDS011;56364;41.816;12.448;2023-11-21T00:35:46;3.90;;;1.50;;
69253;SDS011;56364;41.816;12.448;2023-11-21T01:47:13;2.35;;;1.30;;
69253;SDS011;56364;41.816;12.448;2023-11-21T01:49:40;4.68;;;1.60;;
69253;SDS011;56364;41.816;12.448;2023-11-21T01:52:09;5.85;;;1.77;;
69253;SDS011;56364;41.816;12.448;2023-11-21T01:54:36;5.50;;;1.90;;
69253;SDS011;56364;41.816;12.448;2023-11-21T01:57:02;8.25;;;1.92;;
69253;SDS011;56364;41.816;12.448;2023-11-21T01:59:34;3.90;;;1.70;;
69253;SDS011;56364;41.816;12.448;2023-11-21T02:02:02;7.18;;;1.67;;
69253;SDS011;56364;41.816;12.448;2023-11-21T02:04:29;5.25;;;1.45;;
69253;SDS011;56364;41.816;12.448;2023-11-21T02:06:56;5.22;;;1.67;;
69253;SDS011;56364;41.816;12.448;2023-11-21T02:11:48;6.07;;;1.90;;
69253;SDS011;56364;41.816;12.448;2023-11-21T02:14:14;4.85;;;1.73;;
69253;SDS011;56364;41.816;12.448;2023-11-21T02:16:41;4.65;;;2.03;;
69253;SDS011;56364;41.816;12.448;2023-11-21T02:19:10;5.03;;;1.58;;
69253;SDS011;56364;41.816;12.448;2023-11-21T02:21:39;4.63;;;1.50;;
69253;SDS011;56364;41.816;12.448;2023-11-21T02:24:06;3.08;;;1.50;;
69253;SDS011;56364;41.816;12.448;2023-11-21T02:26:32;3.22;;;1.50;;
69253;SDS011;56364;41.816;12.448;2023-11-21T02:28:58;8.25;;;1.55;;
69253;SDS011;56364;41.816;12.448;2023-11-21T02:31:24;3.80;;;1.58;;
69253;SDS011;56364;41.816;12.448;2023-11-21T02:33:50;4.72;;;1.65;;
69253;SDS011;56364;41.816;12.448;2023-11-21T02:36:16;3.22;;;1.88;;
69253;SDS011;56364;41.816;12.448;2023-11-21T02:38:43;5.75;;;1.65;;
69253;SDS011;56364;41.816;12.448;2023-11-21T03:15:30;5.85;;;1.48;;
69253;SDS011;56364;41.816;12.448;2023-11-21T03:49:35;5.90;;;1.60;;
69253;SDS011;56364;41.816;12.448;2023-11-21T03:52:16;3.92;;;1.35;;
69253;SDS011;56364;41.816;12.448;2023-11-21T03:54:44;3.78;;;1.40;;
69253;SDS011;56364;41.816;12.448;2023-11-21T03:57:11;10.63;;;1.75;;
69253;SDS011;56364;41.816;12.448;2023-11-21T03:59:39;3.38;;;1.33;;
69253;SDS011;56364;41.816;12.448;2023-11-21T04:02:18;4.13;;;1.10;;
69253;SDS011;56364;41.816;12.448;2023-11-21T04:04:44;4.68;;;1.50;;
69253;SDS011;56364;41.816;12.448;2023-11-21T04:07:18;5.40;;;1.45;;
69253;SDS011;56364;41.816;12.448;2023-11-21T04:09:46;6.13;;;1.52;;
69253;SDS011;56364;41.816;12.448;2023-11-21T04:12:45;2.70;;;1.23;;
69253;SDS011;56364;41.816;12.448;2023-11-21T04:15:18;5.05;;;1.70;;
69253;SDS011;56364;41.816;12.448;2023-11-21T04:17:55;4.88;;;1.38;;
69253;SDS011;56364;41.816;12.448;2023-11-21T04:20:21;5.10;;;1.70;;
69253;SDS011;56364;41.816;12.448;2023-11-21T04:22:48;4.50;;;1.48;;
69253;SDS011;56364;41.816;12.448;2023-11-21T04:25:14;4.85;;;1.42;;
69253;SDS011;56364;41.816;12.448;2023-11-21T04:27:41;2.58;;;1.30;;
69253;SDS011;56364;41.816;12.448;2023-11-21T04:30:11;4.15;;;1.50;;
69253;SDS011;56364;41.816;12.448;2023-11-21T04:32:37;5.90;;;1.48;;
69253;SDS011;56364;41.816;12.448;2023-11-21T04:35:07;5.90;;;1.30;;
69253;SDS011;56364;41.816;12.448;2023-11-21T04:37:36;5.25;;;1.40;;
69253;SDS011;56364;41.816;12.448;2023-11-21T04:42:39;4.85;;;1.70;;
69253;SDS011;56364;41.816;12.448;2023-11-21T04:45:06;2.25;;;1.20;;
69253;SDS011;56364;41.816;12.448;2023-11-21T04:47:36;4.65;;;1.08;;
69253;SDS011;56364;41.816;12.448;2023-11-21T04:52:28;4.43;;;1.10;;
69253;SDS011;56364;41.816;12.448;2023-11-21T04:57:24;6.97;;;1.77;;
69253;SDS011;56364;41.816;12.448;2023-11-21T04:59:51;3.03;;;1.30;;
69253;SDS011;56364;41.816;12.448;2023-11-21T05:02:17;7.70;;;1.98;;
69253;SDS011;56364;41.816;12.448;2023-11-21T05:04:44;2.92;;;1.20;;
69253;SDS011;56364;41.816;12.448;2023-11-21T05:07:10;2.10;;;1.23;;
69253;SDS011;56364;41.816;12.448;2023-11-21T05:09:40;7.28;;;1.63;;
69253;SDS011;56364;41.816;12.448;2023-11-21T05:12:06;8.10;;;1.50;;
69253;SDS011;56364;41.816;12.448;2023-11-21T05:14:33;4.55;;;1.70;;
69253;SDS011;56364;41.816;12.448;2023-11-21T05:16:59;3.15;;;1.33;;
69253;SDS011;56364;41.816;12.448;2023-11-21T05:21:58;2.30;;;1.40;;
69253;SDS011;56364;41.816;12.448;2023-11-21T05:24:25;2.85;;;1.45;;
69253;SDS011;56364;41.816;12.448;2023-11-21T05:26:51;3.22;;;1.40;;
69253;SDS011;56364;41.816;12.448;2023-11-21T05:31:43;5.50;;;1.92;;
69253;SDS011;56364;41.816;12.448;2023-11-21T05:34:13;6.32;;;1.50;;
69253;SDS011;56364;41.816;12.448;2023-11-21T05:36:42;3.03;;;1.65;;
69253;SDS011;56364;41.816;12.448;2023-11-21T05:39:24;4.20;;;1.63;;
69253;SDS011;56364;41.816;12.448;2023-11-21T05:41:53;2.28;;;1.45;;
69253;SDS011;56364;41.816;12.448;2023-11-21T05:44:20;6.63;;;1.80;;
69253;SDS011;56364;41.816;12.448;2023-11-21T05:46:46;2.90;;;1.65;;
69253;SDS011;56364;41.816;12.448;2023-11-21T05:49:12;5.63;;;1.70;;
69253;SDS011;56364;41.816;12.448;2023-11-21T05:54:04;5.10;;;1.65;;
69253;SDS011;56364;41.816;12.448;2023-11-21T05:58:58;4.95;;;2.03;;
69253;SDS011;56364;41.816;12.448;2023-11-21T06:06:36;3.63;;;1.67;;
69253;SDS011;56364;41.816;12.448;2023-11-21T06:12:41;4.88;;;1.65;;
69253;SDS011;56364;41.816;12.448;2023-11-21T06:36:20;5.22;;;1.30;;
69253;SDS011;56364;41.816;12.448;2023-11-21T06:38:58;4.38;;;1.60;;
69253;SDS011;56364;41.816;12.448;2023-11-21T06:41:27;4.07;;;1.48;;
69253;SDS011;56364;41.816;12.448;2023-11-21T06:43:53;5.20;;;1.65;;
69253;SDS011;56364;41.816;12.448;2023-11-21T06:46:19;7.20;;;1.40;;
69253;SDS011;56364;41.816;12.448;2023-11-21T06:53:47;7.85;;;1.60;;
69253;SDS011;56364;41.816;12.448;2023-11-21T06:56:15;5.38;;;1.40;;
69253;SDS011;56364;41.816;12.448;2023-11-21T06:58:41;6.00;;;1.67;;
69253;SDS011;56364;41.816;12.448;2023-11-21T07:01:07;2.85;;;1.40;;
69253;SDS011;56364;41.816;12.448;2023-11-21T07:03:39;4.68;;;1.70;;
69253;SDS011;56364;41.816;12.448;2023-11-21T07:06:06;6.15;;;1.45;;
69253;SDS011;56364;41.816;12.448;2023-11-21T07:08:35;4.13;;;1.45;;
69253;SDS011;56364;41.816;12.448;2023-11-21T07:11:02;5.63;;;1.20;;
69253;SDS011;56364;41.816;12.448;2023-11-21T07:13:28;7.57;;;1.55;;
69253;SDS011;56364;41.816;12.448;2023-11-21T07:15:54;9.20;;;1.60;;
69253;SDS011;56364;41.816;12.448;2023-11-21T07:18:21;5.50;;;1.60;;
69253;SDS011;56364;41.816;12.448;2023-11-21T07:20:48;5.55;;;1.50;;
69253;SDS011;56364;41.816;12.448;2023-11-21T07:23:14;5.65;;;1.90;;
69253;SDS011;56364;41.816;12.448;2023-11-21T07:25:40;3.70;;;1.70;;
69253;SDS011;56364;41.816;12.448;2023-11-21T07:31:01;11.50;;;1.75;;
69253;SDS011;56364;41.816;12.448;2023-11-21T07:33:28;9.38;;;1.58;;
69253;SDS011;56364;41.816;12.448;2023-11-21T07:35:54;4.60;;;1.73;;
69253;SDS011;56364;41.816;12.448;2023-11-21T07:38:20;10.00;;;1.85;;
69253;SDS011;56364;41.816;12.448;2023-11-21T07:43:14;8.25;;;1.98;;
69253;SDS011;56364;41.816;12.448;2023-11-21T07:45:40;7.60;;;1.60;;
69253;SDS011;56364;41.816;12.448;2023-11-21T07:48:08;9.55;;;1.60;;
69253;SDS011;56364;41.816;12.448;2023-11-21T07:50:34;8.65;;;2.10;;
69253;SDS011;56364;41.816;12.448;2023-11-21T07:53:05;3.05;;;1.65;;
69253;SDS011;56364;41.816;12.448;2023-11-21T07:58:12;9.63;;;2.15;;
69253;SDS011;56364;41.816;12.448;2023-11-21T08:00:57;4.35;;;1.98;;
69253;SDS011;56364;41.816;12.448;2023-11-21T08:05:59;6.82;;;2.90;;
69253;SDS011;56364;41.816;12.448;2023-11-21T08:13:57;8.68;;;2.17;;
69253;SDS011;56364;41.816;12.448;2023-11-21T08:16:32;12.25;;;2.78;;
69253;SDS011;56364;41.816;12.448;2023-11-21T08:21:24;5.88;;;1.92;;
69253;SDS011;56364;41.816;12.448;2023-11-21T08:23:52;4.68;;;1.92;;
69253;SDS011;56364;41.816;12.448;2023-11-21T08:26:25;7.38;;;2.40;;
69253;SDS011;56364;41.816;12.448;2023-11-21T08:31:23;3.63;;;1.65;;
69253;SDS011;56364;41.816;12.448;2023-11-21T08:33:49;4.68;;;1.98;;
69253;SDS011;56364;41.816;12.448;2023-11-21T08:36:15;4.20;;;1.75;;
69253;SDS011;56364;41.816;12.448;2023-11-21T08:38:41;9.10;;;2.05;;
69253;SDS011;56364;41.816;12.448;2023-11-21T08:41:07;9.73;;;2.40;;
69253;SDS011;56364;41.816;12.448;2023-11-21T08:43:34;6.75;;;2.63;;
69253;SDS011;56364;41.816;12.448;2023-11-21T08:46:00;4.38;;;2.13;;
69253;SDS011;56364;41.816;12.448;2023-11-21T08:48:26;4.85;;;2.08;;
69253;SDS011;56364;41.816;12.448;2023-11-21T08:50:54;4.28;;;1.92;;
69253;SDS011;56364;41.816;12.448;2023-11-21T08:53:24;13.23;;;2.90;;
69253;SDS011;56364;41.816;12.448;2023-11-21T08:55:54;4.78;;;2.17;;
69253;SDS011;56364;41.816;12.448;2023-11-21T09:01:09;12.93;;;2.40;;
69253;SDS011;56364;41.816;12.448;2023-11-21T09:03:35;10.57;;;2.95;;
69253;SDS011;56364;41.816;12.448;2023-11-21T09:08:35;8.02;;;2.90;;
69253;SDS011;56364;41.816;12.448;2023-11-21T09:11:01;17.02;;;4.10;;
69253;SDS011;56364;41.816;12.448;2023-11-21T09:13:41;21.38;;;4.03;;
69253;SDS011;56364;41.816;12.448;2023-11-21T09:16:34;5.95;;;2.28;;
69253;SDS011;56364;41.816;12.448;2023-11-21T09:19:00;7.18;;;2.47;;
69253;SDS011;56364;41.816;12.448;2023-11-21T09:21:30;5.53;;;2.53;;
69253;SDS011;56364;41.816;12.448;2023-11-21T09:23:56;4.25;;;2.35;;
69253;SDS011;56364;41.816;12.448;2023-11-21T09:26:23;5.47;;;2.90;;
69253;SDS011;56364;41.816;12.448;2023-11-21T09:28:49;5.50;;;2.70;;
69253;SDS011;56364;41.816;12.448;2023-11-21T09:33:44;8.23;;;1.90;;
69253;SDS011;56364;41.816;12.448;2023-11-21T09:36:13;10.02;;;2.03;;
69253;SDS011;56364;41.816;12.448;2023-11-21T09:41:07;5.35;;;2.00;;
69253;SDS011;56364;41.816;12.448;2023-11-21T09:43:40;4.07;;;1.60;;
69253;SDS011;56364;41.816;12.448;2023-11-21T09:46:10;4.90;;;1.17;;
69253;SDS011;56364;41.816;12.448;2023-11-21T09:48:38;3.97;;;1.80;;
69253;SDS011;56364;41.816;12.448;2023-11-21T09:51:06;2.25;;;1.10;;
69253;SDS011;56364;41.816;12.448;2023-11-21T09:53:33;3.17;;;1.00;;
69253;SDS011;56364;41.816;12.448;2023-11-21T09:56:00;4.13;;;1.20;;
69253;SDS011;56364;41.816;12.448;2023-11-21T09:58:27;9.98;;;1.55;;
69253;SDS011;56364;41.816;12.448;2023-11-21T10:00:54;2.95;;;1.02;;
69253;SDS011;56364;41.816;12.448;2023-11-21T10:03:21;5.70;;;1.13;;
69253;SDS011;56364;41.816;12.448;2023-11-21T10:05:48;4.63;;;1.23;;
69253;SDS011;56364;41.816;12.448;2023-11-21T10:08:16;10.23;;;1.58;;
69253;SDS011;56364;41.816;12.448;2023-11-21T10:10:45;6.57;;;1.90;;
69253;SDS011;56364;41.816;12.448;2023-11-21T10:13:13;6.85;;;1.02;;
69253;SDS011;56364;41.816;12.448;2023-11-21T10:15:43;2.67;;;0.80;;
69253;SDS011;56364;41.816;12.448;2023-11-21T10:18:13;5.85;;;1.25;;
69253;SDS011;56364;41.816;12.448;2023-11-21T10:20:40;6.82;;;1.50;;
69253;SDS011;56364;41.816;12.448;2023-11-21T10:23:07;7.97;;;1.20;;
69253;SDS011;56364;41.816;12.448;2023-11-21T10:31:44;4.15;;;0.85;;
69253;SDS011;56364;41.816;12.448;2023-11-21T10:44:29;1.58;;;0.43;;
69253;SDS011;56364;41.816;12.448;2023-11-21T10:46:57;1.75;;;0.60;;
69253;SDS011;56364;41.816;12.448;2023-11-21T10:49:26;8.85;;;1.15;;
69253;SDS011;56364;41.816;12.448;2023-11-21T10:51:53;6.47;;;0.80;;
69253;SDS011;56364;41.816;12.448;2023-11-21T10:54:25;2.33;;;0.93;;
69253;SDS011;56364;41.816;12.448;2023-11-21T10:57:00;0.73;;;0.55;;
69253;SDS011;56364;41.816;12.448;2023-11-21T11:02:25;1.63;;;0.52;;
69253;SDS011;56364;41.816;12.448;2023-11-21T11:04:53;0.30;;;0.30;;
69253;SDS011;56364;41.816;12.448;2023-11-21T11:07:21;2.15;;;1.10;;
69253;SDS011;56364;41.816;12.448;2023-11-21T11:09:47;3.05;;;0.98;;
69253;SDS011;56364;41.816;12.448;2023-11-21T11:12:14;5.53;;;1.05;;
69253;SDS011;56364;41.816;12.448;2023-11-21T11:14:42;5.40;;;1.08;;
69253;SDS011;56364;41.816;12.448;2023-11-21T11:17:09;1.00;;;0.55;;
69253;SDS011;56364;41.816;12.448;2023-11-21T11:19:45;2.35;;;0.77;;
69253;SDS011;56364;41.816;12.448;2023-11-21T11:29:41;10.20;;;1.13;;
69253;SDS011;56364;41.816;12.448;2023-11-21T11:34:46;8.30;;;1.70;;
69253;SDS011;56364;41.816;12.448;2023-11-21T11:37:15;9.32;;;1.20;;
69253;SDS011;56364;41.816;12.448;2023-11-21T11:40:01;6.05;;;0.93;;
69253;SDS011;56364;41.816;12.448;2023-11-21T11:42:31;9.57;;;1.48;;
69253;SDS011;56364;41.816;12.448;2023-11-21T11:45:01;5.10;;;0.80;;
69253;SDS011;56364;41.816;12.448;2023-11-21T11:47:32;4.63;;;1.02;;
69253;SDS011;56364;41.816;12.448;2023-11-21T11:50:17;4.60;;;0.80;;
69253;SDS011;56364;41.816;12.448;2023-11-21T11:57:50;6.28;;;1.13;;
69253;SDS011;56364;41.816;12.448;2023-11-21T12:00:20;3.67;;;0.60;;
69253;SDS011;56364;41.816;12.448;2023-11-21T12:02:53;3.95;;;0.80;;
69253;SDS011;56364;41.816;12.448;2023-11-21T12:05:20;2.50;;;0.82;;
69253;SDS011;56364;41.816;12.448;2023-11-21T12:07:48;3.63;;;0.75;;
69253;SDS011;56364;41.816;12.448;2023-11-21T12:10:15;7.55;;;0.65;;
69253;SDS011;56364;41.816;12.448;2023-11-21T12:12:49;1.30;;;0.80;;
69253;SDS011;56364;41.816;12.448;2023-11-21T12:15:17;4.35;;;1.20;;
69253;SDS011;56364;41.816;12.448;2023-11-21T12:17:44;9.27;;;1.10;;
69253;SDS011;56364;41.816;12.448;2023-11-21T12:20:28;6.85;;;1.40;;
69253;SDS011;56364;41.816;12.448;2023-11-21T12:38:46;9.75;;;1.30;;
69253;SDS011;56364;41.816;12.448;2023-11-21T12:41:13;11.50;;;1.88;;
69253;SDS011;56364;41.816;12.448;2023-11-21T12:43:42;9.18;;;1.40;;
69253;SDS011;56364;41.816;12.448;2023-11-21T12:46:08;7.60;;;1.42;;
69253;SDS011;56364;41.816;12.448;2023-11-21T12:48:38;7.38;;;1.30;;
69253;SDS011;56364;41.816;12.448;2023-11-21T12:53:51;7.78;;;1.00;;
69253;SDS011;56364;41.816;12.448;2023-11-21T12:56:37;12.73;;;1.23;;
69253;SDS011;56364;41.816;12.448;2023-11-21T12:59:06;1.92;;;0.75;;
69253;SDS011;56364;41.816;12.448;2023-11-21T13:01:38;4.38;;;0.98;;
69253;SDS011;56364;41.816;12.448;2023-11-21T13:04:07;17.02;;;2.05;;
69253;SDS011;56364;41.816;12.448;2023-11-21T13:06:36;11.90;;;1.88;;
69253;SDS011;56364;41.816;12.448;2023-11-21T13:09:06;5.82;;;1.20;;
69253;SDS011;56364;41.816;12.448;2023-11-21T13:11:36;12.50;;;2.20;;
69253;SDS011;56364;41.816;12.448;2023-11-21T13:14:02;10.80;;;1.48;;
69253;SDS011;56364;41.816;12.448;2023-11-21T13:16:28;2.95;;;0.80;;
69253;SDS011;56364;41.816;12.448;2023-11-21T13:18:56;5.10;;;0.77;;
69253;SDS011;56364;41.816;12.448;2023-11-21T13:21:23;9.05;;;1.08;;
69253;SDS011;56364;41.816;12.448;2023-11-21T13:23:49;9.02;;;1.38;;
69253;SDS011;56364;41.816;12.448;2023-11-21T13:26:18;5.15;;;1.33;;
69253;SDS011;56364;41.816;12.448;2023-11-21T13:28:45;9.77;;;1.58;;
69253;SDS011;56364;41.816;12.448;2023-11-21T13:31:14;7.50;;;1.40;;
69253;SDS011;56364;41.816;12.448;2023-11-21T13:33:51;2.35;;;1.02;;
69253;SDS011;56364;41.816;12.448;2023-11-21T13:36:21;7.40;;;1.17;;
69253;SDS011;56364;41.816;12.448;2023-11-21T13:38:51;7.18;;;1.00;;
69253;SDS011;56364;41.816;12.448;2023-11-21T13:41:22;4.80;;;1.40;;
69253;SDS011;56364;41.816;12.448;2023-11-21T13:43:55;12.70;;;1.48;;
69253;SDS011;56364;41.816;12.448;2023-11-21T13:46:31;12.80;;;1.83;;
69253;SDS011;56364;41.816;12.448;2023-11-21T13:49:04;16.13;;;1.73;;
69253;SDS011;56364;41.816;12.448;2023-11-21T13:51:35;7.95;;;1.50;;
69253;SDS011;56364;41.816;12.448;2023-11-21T13:54:13;14.40;;;1.85;;
69253;SDS011;56364;41.816;12.448;2023-11-21T13:56:41;19.35;;;1.83;;
69253;SDS011;56364;41.816;12.448;2023-11-21T13:59:12;11.77;;;1.60;;
69253;SDS011;56364;41.816;12.448;2023-11-21T14:01:50;12.10;;;1.73;;
69253;SDS011;56364;41.816;12.448;2023-11-21T14:04:33;10.60;;;1.20;;
69253;SDS011;56364;41.816;12.448;2023-11-21T14:07:15;10.68;;;2.28;;
69253;SDS011;56364;41.816;12.448;2023-11-21T14:09:59;12.27;;;1.35;;
69253;SDS011;56364;41.816;12.448;2023-11-21T14:12:32;12.68;;;1.70;;
69253;SDS011;56364;41.816;12.448;2023-11-21T14:15:01;15.18;;;1.55;;
69253;SDS011;56364;41.816;12.448;2023-11-21T14:17:32;12.40;;;1.77;;
69253;SDS011;56364;41.816;12.448;2023-11-21T14:19:59;12.68;;;1.88;;
69253;SDS011;56364;41.816;12.448;2023-11-21T14:22:30;8.55;;;1.65;;
69253;SDS011;56364;41.816;12.448;2023-11-21T14:24:56;10.45;;;1.98;;
69253;SDS011;56364;41.816;12.448;2023-11-21T14:27:25;18.20;;;1.73;;
69253;SDS011;56364;41.816;12.448;2023-11-21T14:29:52;9.77;;;1.70;;
69253;SDS011;56364;41.816;12.448;2023-11-21T14:32:24;13.68;;;1.30;;
69253;SDS011;56364;41.816;12.448;2023-11-21T14:34:51;13.02;;;1.92;;
69253;SDS011;56364;41.816;12.448;2023-11-21T14:39:43;11.15;;;1.95;;
69253;SDS011;56364;41.816;12.448;2023-11-21T14:42:12;10.65;;;1.23;;
69253;SDS011;56364;41.816;12.448;2023-11-21T14:44:40;7.20;;;1.27;;
69253;SDS011;56364;41.816;12.448;2023-11-21T15:07:50;10.10;;;2.30;;
69253;SDS011;56364;41.816;12.448;2023-11-21T15:10:20;12.30;;;1.42;;
69253;SDS011;56364;41.816;12.448;2023-11-21T15:12:54;11.55;;;1.63;;
69253;SDS011;56364;41.816;12.448;2023-11-21T15:15:21;13.02;;;2.45;;
69253;SDS011;56364;41.816;12.448;2023-11-21T15:17:47;10.73;;;2.13;;
69253;SDS011;56364;41.816;12.448;2023-11-21T15:20:13;7.25;;;1.88;;
69253;SDS011;56364;41.816;12.448;2023-11-21T15:22:47;8.13;;;1.88;;
69253;SDS011;56364;41.816;12.448;2023-11-21T15:25:16;14.40;;;2.25;;
69253;SDS011;56364;41.816;12.448;2023-11-21T15:27:44;11.32;;;2.08;;
69253;SDS011;56364;41.816;12.448;2023-11-21T15:30:14;16.15;;;2.22;;
69253;SDS011;56364;41.816;12.448;2023-11-21T15:32:41;7.07;;;1.60;;
69253;SDS011;56364;41.816;12.448;2023-11-21T15:37:39;14.85;;;2.20;;
69253;SDS011;56364;41.816;12.448;2023-11-21T15:42:36;6.45;;;1.85;;
69253;SDS011;56364;41.816;12.448;2023-11-21T15:47:31;4.15;;;1.27;;
69253;SDS011;56364;41.816;12.448;2023-11-21T15:52:23;6.60;;;1.52;;
69253;SDS011;56364;41.816;12.448;2023-11-21T15:57:19;10.48;;;1.50;;
69253;SDS011;56364;41.816;12.448;2023-11-21T15:59:49;7.40;;;2.00;;
69253;SDS011;56364;41.816;12.448;2023-11-21T16:02:18;7.22;;;1.20;;
69253;SDS011;56364;41.816;12.448;2023-11-21T16:07:19;9.43;;;1.38;;
69253;SDS011;56364;41.816;12.448;2023-11-21T16:09:45;9.45;;;1.67;;
69253;SDS011;56364;41.816;12.448;2023-11-21T16:12:21;14.25;;;2.45;;
69253;SDS011;56364;41.816;12.448;2023-11-21T16:14:47;10.85;;;1.27;;
69253;SDS011;56364;41.816;12.448;2023-11-21T16:17:15;6.95;;;1.02;;
69253;SDS011;56364;41.816;12.448;2023-11-21T16:19:49;12.48;;;1.70;;
69253;SDS011;56364;41.816;12.448;2023-11-21T16:22:20;3.78;;;1.42;;
69253;SDS011;56364;41.816;12.448;2023-11-21T16:27:12;9.77;;;1.48;;
69253;SDS011;56364;41.816;12.448;2023-11-21T16:29:39;12.60;;;1.48;;
69253;SDS011;56364;41.816;12.448;2023-11-21T16:32:06;16.98;;;1.83;;
69253;SDS011;56364;41.816;12.448;2023-11-21T16:36:59;12.65;;;2.15;;
69253;SDS011;56364;41.816;12.448;2023-11-21T16:39:25;6.53;;;1.38;;
69253;SDS011;56364;41.816;12.448;2023-11-21T16:46:55;15.25;;;1.75;;
69253;SDS011;56364;41.816;12.448;2023-11-21T16:49:23;10.70;;;1.90;;
69253;SDS011;56364;41.816;12.448;2023-11-21T16:51:54;9.35;;;2.22;;
69253;SDS011;56364;41.816;12.448;2023-11-21T16:54:26;18.75;;;2.30;;
69253;SDS011;56364;41.816;12.448;2023-11-21T16:56:52;13.60;;;2.47;;
69253;SDS011;56364;41.816;12.448;2023-11-21T16:59:19;15.00;;;2.08;;
69253;SDS011;56364;41.816;12.448;2023-11-21T17:19:51;11.35;;;1.85;;
69253;SDS011;56364;41.816;12.448;2023-11-21T17:22:25;15.55;;;3.20;;
69253;SDS011;56364;41.816;12.448;2023-11-21T17:43:08;13.18;;;2.85;;
69253;SDS011;56364;41.816;12.448;2023-11-21T17:45:35;13.43;;;2.55;;
69253;SDS011;56364;41.816;12.448;2023-11-21T18:01:55;10.63;;;2.10;;
69253;SDS011;56364;41.816;12.448;2023-11-21T18:04:22;20.77;;;2.60;;
69253;SDS011;56364;41.816;12.448;2023-11-21T18:06:48;18.70;;;3.28;;
69253;SDS011;56364;41.816;12.448;2023-11-21T18:09:15;11.77;;;2.33;;
69253;SDS011;56364;41.816;12.448;2023-11-21T18:11:42;17.80;;;3.00;;
69253;SDS011;56364;41.816;12.448;2023-11-21T18:14:08;12.85;;;2.25;;
69253;SDS011;56364;41.816;12.448;2023-11-21T18:16:37;12.40;;;2.42;;
69253;SDS011;56364;41.816;12.448;2023-11-21T18:21:42;17.30;;;2.03;;
69253;SDS011;56364;41.816;12.448;2023-11-21T18:26:34;10.77;;;2.15;;
69253;SDS011;56364;41.816;12.448;2023-11-21T18:29:09;8.82;;;2.53;;
69253;SDS011;56364;41.816;12.448;2023-11-21T18:31:38;11.40;;;2.50;;
69253;SDS011;56364;41.816;12.448;2023-11-21T18:34:27;14.05;;;1.98;;
69253;SDS011;56364;41.816;12.448;2023-11-21T18:37:02;7.72;;;1.85;;
69253;SDS011;56364;41.816;12.448;2023-11-21T18:39:31;12.27;;;1.50;;
69253;SDS011;56364;41.816;12.448;2023-11-21T18:41:59;7.25;;;1.52;;
69253;SDS011;56364;41.816;12.448;2023-11-21T18:44:25;4.68;;;1.25;;
69253;SDS011;56364;41.816;12.448;2023-11-21T18:46:51;9.82;;;1.08;;
69253;SDS011;56364;41.816;12.448;2023-11-21T18:49:20;3.17;;;0.73;;
69253;SDS011;56364;41.816;12.448;2023-11-21T18:52:18;4.22;;;0.77;;
69253;SDS011;56364;41.816;12.448;2023-11-21T19:16:13;11.35;;;1.67;;
69253;SDS011;56364;41.816;12.448;2023-11-21T19:21:24;2.58;;;1.15;;
69253;SDS011;56364;41.816;12.448;2023-11-21T20:30:09;9.25;;;0.98;;
69253;SDS011;56364;41.816;12.448;2023-11-21T20:32:35;4.35;;;0.88;;
69253;SDS011;56364;41.816;12.448;2023-11-21T20:35:04;8.70;;;1.13;;
69253;SDS011;56364;41.816;12.448;2023-11-21T20:37:39;12.65;;;1.30;;
69253;SDS011;56364;41.816;12.448;2023-11-21T20:42:33;5.75;;;1.30;;
69253;SDS011;56364;41.816;12.448;2023-11-21T20:45:01;6.93;;;1.10;;
69253;SDS011;56364;41.816;12.448;2023-11-21T20:47:29;8.07;;;1.45;;
69253;SDS011;56364;41.816;12.448;2023-11-21T20:49:57;3.78;;;1.10;;
69253;SDS011;56364;41.816;12.448;2023-11-21T20:52:25;7.22;;;1.35;;
69253;SDS011;56364;41.816;12.448;2023-11-21T20:55:03;5.90;;;1.58;;
69253;SDS011;56364;41.816;12.448;2023-11-21T20:57:38;3.17;;;1.08;;
69253;SDS011;56364;41.816;12.448;2023-11-21T21:00:19;7.28;;;1.10;;
69253;SDS011;56364;41.816;12.448;2023-11-21T21:02:45;9.13;;;1.90;;
69253;SDS011;56364;41.816;12.448;2023-11-21T21:05:15;11.63;;;1.70;;
69253;SDS011;56364;41.816;12.448;2023-11-21T21:07:42;10.38;;;1.73;;
69253;SDS011;56364;41.816;12.448;2023-11-21T21:17:55;5.28;;;1.33;;
69253;SDS011;56364;41.816;12.448;2023-11-21T23:21:30;10.65;;;1.38;;
69253;SDS011;56364;41.816;12.448;2023-11-21T23:23:59;12.95;;;2.15;;
69253;SDS011;56364;41.816;12.448;2023-11-21T23:29:17;10.10;;;1.67;;
69253;SDS011;56364;41.816;12.448;2023-11-21T23:31:44;6.40;;;1.27;;
69253;SDS011;56364;41.816;12.448;2023-11-21T23:37:04;6.20;;;1.48;;
69253;SDS011;56364;41.816;12.448;2023-11-21T23:39:30;7.32;;;1.65;;
69253;SDS011;56364;41.816;12.448;2023-11-21T23:41:56;12.23;;;1.75;;
69253;SDS011;56364;41.816;12.448;2023-11-21T23:44:22;12.63;;;1.45;;
69253;SDS011;56364;41.816;12.448;2023-11-21T23:49:36;6.05;;;1.67;;
69253;SDS011;56364;41.816;12.448;2023-11-21T23:57:59;2.63;;;1.17;;
